Time;durP1;ratioP1;P1;durP2;ratioP2;P2;SDS_P1;SDS_P2;PMS_P1;PMS_P2;Temp;Humidity;BMP_temperature;BMP_pressure;BME280_temperature;BME280_humidity;BME280_pressure;Samples;Min_cycle;Max_cycle;Signal;HPM_P1;HPM_P2
2022/04/15 00:01:23;;;;;;;;;;;13.20;63.80;;;;;;4994804;28;19916;-61
2022/04/15 00:03:52;;;;;;;;;;;13.10;65.20;;;;;;4995107;28;20273;-60
2022/04/15 00:06:18;;;;;;;;;;;13.10;66.40;;;;;;4994729;28;19924;-60
2022/04/15 00:08:44;;;;;;;;;;;13.00;68.40;;;;;;4994668;28;20005;-60
2022/04/15 00:11:10;;;;;;;;;;;13.00;67.80;;;;;;4994917;28;19952;-60
2022/04/15 00:13:36;;;;;;;;;;;13.00;64.70;;;;;;4995075;28;20408;-61
2022/04/15 00:16:05;;;;;;;;;;;13.00;61.40;;;;;;4995344;28;19944;-61
2022/04/15 00:18:31;;;;;;;;;;;12.90;63.90;;;;;;4995185;28;19921;-60
2022/04/15 00:20:56;;;;;;;;;;;12.90;63.50;;;;;;4995471;28;19936;-62
2022/04/15 00:23:22;;;;;;;;;;;13.00;65.10;;;;;;4994960;28;19916;-60
2022/04/15 00:25:48;;;;;;;;;;;12.80;65.90;;;;;;4995167;28;19909;-60
2022/04/15 00:28:14;;;;;;;;;;;12.70;65.40;;;;;;4994815;28;19917;-60
2022/04/15 00:30:40;;;;;;;;;;;12.60;66.50;;;;;;4994821;28;19910;-60
2022/04/15 00:33:05;;;;;;;;;;;12.60;68.90;;;;;;4994362;28;19952;-60
2022/04/15 00:35:31;;;;;;;;;;;12.50;66.70;;;;;;4994564;28;19910;-60
2022/04/15 00:37:56;;;;;;;;;;;12.60;65.30;;;;;;4993275;28;19921;-61
2022/04/15 00:40:22;;;;;;;;;;;12.60;65.00;;;;;;4994495;28;19997;-61
2022/04/15 00:42:48;;;;;;;;;;;12.50;64.40;;;;;;4994405;28;19910;-60
2022/04/15 00:45:13;;;;;;;;;;;12.50;63.30;;;;;;4994455;28;19932;-61
2022/04/15 00:47:44;;;;;;;;;;;12.50;63.60;;;;;;4994385;28;20377;-60
2022/04/15 00:50:10;;;;;;;;;;;12.50;63.00;;;;;;4994266;28;19914;-60
2022/04/15 00:52:40;;;;;;;;;;;12.70;61.60;;;;;;4994091;28;19996;-60
2022/04/15 00:55:06;;;;;;;;;;;12.80;60.80;;;;;;4997684;28;20009;-60
2022/04/15 00:57:34;;;;;;;;;;;12.80;61.20;;;;;;4998051;28;19961;-61
2022/04/15 01:00:01;;;;;;;;;;;12.80;62.40;;;;;;4998373;28;20008;-60
2022/04/15 01:02:28;;;;;;;;;;;12.80;62.50;;;;;;4998012;28;19917;-60
2022/04/15 01:04:55;;;;;;;;;;;12.60;62.80;;;;;;4998187;28;19910;-60
2022/04/15 01:07:22;;;;;;;;;;;12.60;63.30;;;;;;4998055;28;19961;-60
2022/04/15 01:09:50;;;;;;;;;;;12.40;64.70;;;;;;4997853;28;19909;-60
2022/04/15 01:12:17;;;;;;;;;;;12.50;65.40;;;;;;4998008;28;19916;-60
2022/04/15 01:14:43;;;;;;;;;;;12.50;65.10;;;;;;4998060;28;20372;-60
2022/04/15 01:17:09;;;;;;;;;;;12.40;64.90;;;;;;4997879;28;19910;-60
2022/04/15 01:19:34;;;;;;;;;;;12.30;64.50;;;;;;4997435;28;19992;-60
2022/04/15 01:22:01;;;;;;;;;;;12.30;64.00;;;;;;4997492;28;19988;-60
2022/04/15 01:24:28;;;;;;;;;;;12.20;63.80;;;;;;4997930;28;19965;-60
2022/04/15 01:26:54;;;;;;;;;;;12.20;63.60;;;;;;4997968;28;20285;-60
2022/04/15 01:29:19;;;;;;;;;;;12.30;63.50;;;;;;4997714;28;19914;-60
2022/04/15 01:31:45;;;;;;;;;;;12.30;63.70;;;;;;4997215;28;19910;-60
2022/04/15 01:34:10;;;;;;;;;;;12.30;64.80;;;;;;4997519;28;19917;-60
2022/04/15 01:36:36;;;;;;;;;;;12.30;64.50;;;;;;4997471;28;20503;-60
2022/04/15 01:39:01;;;;;;;;;;;12.30;64.20;;;;;;4997547;28;19913;-60
2022/04/15 01:41:27;;;;;;;;;;;12.40;62.90;;;;;;4997256;28;19929;-60
2022/04/15 01:43:53;;;;;;;;;;;12.40;63.00;;;;;;4997265;28;20012;-60
2022/04/15 01:46:18;;;;;;;;;;;12.20;64.20;;;;;;4997626;28;19910;-60
2022/04/15 01:48:44;;;;;;;;;;;12.10;65.50;;;;;;4997140;28;19956;-61
2022/04/15 01:51:09;;;;;;;;;;;12.10;64.40;;;;;;4997439;28;20425;-60
2022/04/15 01:53:35;;;;;;;;;;;12.30;64.70;;;;;;4997087;28;19906;-60
2022/04/15 01:56:00;;;;;;;;;;;12.30;65.20;;;;;;4996864;28;19919;-60
2022/04/15 01:58:26;;;;;;;;;;;12.40;62.80;;;;;;4997204;28;19914;-60
2022/04/15 02:00:52;;;;;;;;;;;12.40;61.80;;;;;;4996807;28;19917;-60
2022/04/15 02:03:17;;;;;;;;;;;12.30;63.70;;;;;;4996657;28;19909;-60
2022/04/15 02:05:43;;;;;;;;;;;12.40;60.70;;;;;;4995513;28;19968;-60
2022/04/15 02:08:08;;;;;;;;;;;12.50;61.00;;;;;;4996810;28;19918;-60
2022/04/15 02:10:34;;;;;;;;;;;12.40;62.40;;;;;;4996624;28;19910;-60
2022/04/15 02:13:00;;;;;;;;;;;12.30;62.40;;;;;;4996513;28;19964;-60
2022/04/15 02:15:25;;;;;;;;;;;12.10;63.10;;;;;;4996618;28;19933;-60
2022/04/15 02:17:51;;;;;;;;;;;11.90;64.50;;;;;;4996618;28;20282;-60
2022/04/15 02:20:16;;;;;;;;;;;11.90;63.60;;;;;;4996602;28;19918;-60
2022/04/15 02:22:42;;;;;;;;;;;11.90;65.00;;;;;;4996643;28;19964;-60
2022/04/15 02:25:08;;;;;;;;;;;11.80;65.70;;;;;;4996766;28;19953;-60
2022/04/15 02:27:33;;;;;;;;;;;12.00;65.00;;;;;;4996396;28;19922;-60
2022/04/15 02:29:59;;;;;;;;;;;12.10;63.70;;;;;;4994940;28;19949;-61
2022/04/15 02:32:25;;;;;;;;;;;12.00;63.80;;;;;;4996151;28;19956;-60
2022/04/15 02:34:51;;;;;;;;;;;12.00;63.80;;;;;;4996365;28;20269;-60
2022/04/15 02:37:17;;;;;;;;;;;12.00;63.00;;;;;;4996414;28;19914;-60
2022/04/15 02:39:42;;;;;;;;;;;12.00;63.10;;;;;;4996173;28;19910;-61
2022/04/15 02:42:08;;;;;;;;;;;12.10;63.10;;;;;;4996137;28;20444;-61
2022/04/15 02:44:36;;;;;;;;;;;12.10;62.80;;;;;;4996080;28;19910;-61
2022/04/15 02:47:01;;;;;;;;;;;12.20;62.00;;;;;;4996135;28;19918;-60
2022/04/15 02:49:27;;;;;;;;;;;12.20;63.00;;;;;;4995829;28;19918;-60
2022/04/15 02:51:53;;;;;;;;;;;12.10;63.80;;;;;;4996060;28;19910;-60
2022/04/15 02:54:19;;;;;;;;;;;11.90;65.00;;;;;;4995828;28;19910;-60
2022/04/15 02:56:44;;;;;;;;;;;11.90;64.40;;;;;;4995809;28;19914;-60
2022/04/15 02:59:10;;;;;;;;;;;11.90;64.80;;;;;;4996001;28;19909;-60
2022/04/15 03:01:35;;;;;;;;;;;11.80;64.00;;;;;;4995746;28;19952;-60
2022/04/15 03:04:01;;;;;;;;;;;11.90;63.90;;;;;;4995649;28;19910;-60
2022/04/15 03:06:27;;;;;;;;;;;12.00;63.30;;;;;;4995635;28;19913;-60
2022/04/15 03:08:52;;;;;;;;;;;12.10;63.10;;;;;;4995637;28;19913;-60
2022/04/15 03:11:18;;;;;;;;;;;12.00;63.80;;;;;;4995700;28;19909;-60
2022/04/15 03:13:44;;;;;;;;;;;11.90;63.40;;;;;;4995443;28;19964;-62
2022/04/15 03:16:10;;;;;;;;;;;12.00;63.30;;;;;;4994950;28;20369;-60
2022/04/15 03:18:36;;;;;;;;;;;12.10;64.10;;;;;;4995310;28;19922;-60
2022/04/15 03:21:02;;;;;;;;;;;12.00;62.70;;;;;;4995255;28;19957;-60
2022/04/15 03:23:29;;;;;;;;;;;11.80;62.50;;;;;;4995557;28;19917;-60
2022/04/15 03:25:54;;;;;;;;;;;11.80;62.90;;;;;;4995426;28;19910;-60
2022/04/15 03:28:20;;;;;;;;;;;11.70;62.50;;;;;;4995370;28;19924;-60
2022/04/15 03:30:46;;;;;;;;;;;11.70;64.40;;;;;;4995537;28;19916;-60
2022/04/15 03:33:11;;;;;;;;;;;11.90;64.30;;;;;;4993775;28;19983;-61
2022/04/15 03:35:37;;;;;;;;;;;11.80;62.90;;;;;;4993841;28;20001;-60
2022/04/15 03:38:03;;;;;;;;;;;11.80;63.20;;;;;;4995531;28;19914;-60
2022/04/15 03:40:29;;;;;;;;;;;11.90;62.60;;;;;;4995292;28;19964;-60
2022/04/15 03:42:56;;;;;;;;;;;11.90;63.30;;;;;;4995143;28;20000;-59
2022/04/15 03:45:22;;;;;;;;;;;11.80;62.70;;;;;;4995249;28;19918;-60
2022/04/15 03:47:48;;;;;;;;;;;11.80;62.80;;;;;;4995086;28;19972;-60
2022/04/15 03:50:14;;;;;;;;;;;11.80;62.40;;;;;;4995123;28;19910;-60
2022/04/15 03:52:42;;;;;;;;;;;11.90;62.60;;;;;;4994853;28;19945;-60
2022/04/15 03:55:11;;;;;;;;;;;12.00;61.90;;;;;;4995071;28;20325;-62
2022/04/15 03:57:37;;;;;;;;;;;12.00;61.20;;;;;;4994846;28;19921;-61
2022/04/15 04:00:06;;;;;;;;;;;11.90;61.90;;;;;;4994622;28;19910;-60
2022/04/15 04:02:32;;;;;;;;;;;11.80;63.10;;;;;;4994858;28;19916;-60
2022/04/15 04:04:58;;;;;;;;;;;11.60;64.10;;;;;;4994652;28;19910;-60
2022/04/15 04:07:23;;;;;;;;;;;11.60;64.10;;;;;;4994530;28;19918;-60
2022/04/15 04:09:49;;;;;;;;;;;11.60;63.20;;;;;;4994761;28;19917;-59
2022/04/15 04:12:14;;;;;;;;;;;11.90;61.00;;;;;;4994673;28;19964;-60
2022/04/15 04:14:40;;;;;;;;;;;12.00;60.20;;;;;;4994808;28;19968;-60
2022/04/15 04:17:06;;;;;;;;;;;12.20;59.70;;;;;;4994602;28;19956;-61
2022/04/15 04:19:31;;;;;;;;;;;12.20;60.20;;;;;;4994276;28;19996;-60
2022/04/15 04:21:57;;;;;;;;;;;12.00;60.40;;;;;;4994389;28;19953;-60
2022/04/15 04:24:22;;;;;;;;;;;11.90;62.60;;;;;;4994504;28;19913;-60
2022/04/15 04:26:48;;;;;;;;;;;11.70;64.00;;;;;;4994456;28;20404;-60
2022/04/15 04:29:14;;;;;;;;;;;11.80;65.00;;;;;;4996273;28;19914;-60
2022/04/15 04:31:39;;;;;;;;;;;12.00;64.30;;;;;;4998523;28;19996;-60
2022/04/15 04:34:05;;;;;;;;;;;12.00;63.60;;;;;;4998715;28;20453;-61
2022/04/15 04:36:30;;;;;;;;;;;11.90;63.10;;;;;;4998375;28;20421;-60
2022/04/15 04:38:56;;;;;;;;;;;11.70;63.50;;;;;;4997231;28;19910;-60
2022/04/15 04:41:22;;;;;;;;;;;11.60;65.30;;;;;;4998243;28;20005;-61
2022/04/15 04:43:47;;;;;;;;;;;11.50;66.20;;;;;;4998539;28;19910;-60
2022/04/15 04:46:13;;;;;;;;;;;11.30;67.20;;;;;;4998080;28;20262;-60
2022/04/15 04:48:38;;;;;;;;;;;11.20;67.90;;;;;;4998358;28;19973;-61
2022/04/15 04:51:04;;;;;;;;;;;11.20;67.40;;;;;;4998366;28;19957;-60
2022/04/15 04:53:30;;;;;;;;;;;11.20;67.80;;;;;;4998307;28;19917;-60
2022/04/15 04:55:55;;;;;;;;;;;11.30;66.50;;;;;;4998330;28;19910;-60
2022/04/15 04:58:21;;;;;;;;;;;11.40;66.60;;;;;;4997962;28;19917;-59
2022/04/15 05:00:47;;;;;;;;;;;11.40;67.30;;;;;;4997862;28;19961;-60
2022/04/15 05:03:12;;;;;;;;;;;11.40;66.50;;;;;;4998115;28;20269;-61
2022/04/15 05:05:38;;;;;;;;;;;11.50;66.50;;;;;;4999070;28;20007;-62
2022/04/15 05:08:04;;;;;;;;;;;11.60;65.50;;;;;;4998661;28;20065;-62
2022/04/15 05:10:29;;;;;;;;;;;11.90;63.60;;;;;;4998032;28;19909;-60
2022/04/15 05:12:55;;;;;;;;;;;11.90;63.40;;;;;;4998377;28;19916;-60
2022/04/15 05:15:21;;;;;;;;;;;11.90;64.30;;;;;;4998592;28;19910;-60
2022/04/15 05:17:46;;;;;;;;;;;11.70;66.10;;;;;;4998137;28;19957;-59
2022/04/15 05:20:13;;;;;;;;;;;11.70;65.90;;;;;;4998214;28;19913;-60
2022/04/15 05:22:39;;;;;;;;;;;11.70;66.10;;;;;;4998418;28;19916;-60
2022/04/15 05:25:05;;;;;;;;;;;11.70;65.90;;;;;;4998233;28;19957;-60
2022/04/15 05:27:32;;;;;;;;;;;11.80;66.10;;;;;;4997810;28;19929;-60
2022/04/15 05:29:57;;;;;;;;;;;11.90;66.80;;;;;;4997378;28;20005;-60
2022/04/15 05:32:23;;;;;;;;;;;11.80;66.90;;;;;;4997520;28;19952;-60
2022/04/15 05:34:49;;;;;;;;;;;11.70;67.00;;;;;;4997426;28;19975;-60
2022/04/15 05:37:14;;;;;;;;;;;11.70;67.10;;;;;;4997595;28;19952;-61
2022/04/15 05:39:40;;;;;;;;;;;11.70;67.60;;;;;;4995742;28;19933;-62
2022/04/15 05:42:06;;;;;;;;;;;11.80;67.60;;;;;;4997450;28;20000;-60
2022/04/15 05:44:31;;;;;;;;;;;11.80;67.90;;;;;;4997099;28;19964;-59
2022/04/15 05:46:57;;;;;;;;;;;11.80;67.80;;;;;;4997339;28;20472;-60
2022/04/15 05:49:24;;;;;;;;;;;11.70;67.90;;;;;;4997533;28;19921;-60
2022/04/15 05:51:50;;;;;;;;;;;11.70;68.80;;;;;;4997159;28;19914;-60
2022/04/15 05:54:15;;;;;;;;;;;11.80;69.80;;;;;;4995669;28;19917;-60
2022/04/15 05:56:42;;;;;;;;;;;11.90;69.30;;;;;;4997016;28;19916;-61
2022/04/15 05:59:07;;;;;;;;;;;11.90;69.50;;;;;;4996909;28;20004;-61
2022/04/15 06:01:33;;;;;;;;;;;12.10;69.10;;;;;;4997010;28;19953;-60
2022/04/15 06:03:59;;;;;;;;;;;12.10;69.20;;;;;;4996779;28;19964;-60
2022/04/15 06:06:24;;;;;;;;;;;12.50;71.30;;;;;;4996881;28;19937;-61
2022/04/15 06:08:50;;;;;;;;;;;12.90;70.20;;;;;;4996798;28;20016;-66
2022/04/15 06:11:15;;;;;;;;;;;13.40;69.20;;;;;;4996340;28;19910;-65
2022/04/15 06:13:47;;;;;;;;;;;14.00;68.30;;;;;;4996493;28;19913;-65
2022/04/15 06:16:16;;;;;;;;;;;14.50;65.40;;;;;;4996484;28;19953;-62
2022/04/15 06:18:42;;;;;;;;;;;14.90;63.40;;;;;;4996205;28;19922;-62
2022/04/15 06:21:08;;;;;;;;;;;15.30;60.90;;;;;;4996080;28;20346;-64
2022/04/15 06:23:33;;;;;;;;;;;15.60;59.70;;;;;;4996436;28;19910;-63
2022/04/15 06:25:59;;;;;;;;;;;15.90;58.90;;;;;;4996262;28;19909;-63
2022/04/15 06:28:25;;;;;;;;;;;16.10;58.60;;;;;;4996373;28;20041;-64
2022/04/15 06:30:50;;;;;;;;;;;16.40;58.40;;;;;;4996339;28;19952;-64
2022/04/15 06:33:17;;;;;;;;;;;16.70;58.20;;;;;;4995929;28;19909;-63
2022/04/15 06:35:42;;;;;;;;;;;17.00;57.00;;;;;;4995992;28;19909;-65
2022/04/15 06:38:08;;;;;;;;;;;17.30;56.80;;;;;;4996091;28;19917;-71
2022/04/15 06:40:34;;;;;;;;;;;17.60;56.30;;;;;;4994577;28;19910;-65
2022/04/15 06:42:59;;;;;;;;;;;17.80;54.50;;;;;;4992953;28;19914;-64
2022/04/15 06:45:25;;;;;;;;;;;18.10;53.00;;;;;;4994339;28;20368;-64
2022/04/15 06:47:51;;;;;;;;;;;18.10;50.20;;;;;;4994612;28;19918;-67
2022/04/15 06:50:16;;;;;;;;;;;18.10;49.90;;;;;;4994138;28;19968;-64
2022/04/15 06:52:42;;;;;;;;;;;18.00;50.30;;;;;;4993626;28;19918;-65
2022/04/15 06:55:08;;;;;;;;;;;17.80;51.50;;;;;;4994127;28;19985;-65
2022/04/15 06:57:33;;;;;;;;;;;17.60;50.10;;;;;;4994131;28;19910;-64
2022/04/15 06:59:59;;;;;;;;;;;17.70;51.20;;;;;;4994173;28;20389;-65
2022/04/15 07:02:25;;;;;;;;;;;17.90;51.80;;;;;;4993843;28;20293;-64
2022/04/15 07:04:51;;;;;;;;;;;18.10;50.40;;;;;;4993844;28;19937;-70
2022/04/15 07:07:16;;;;;;;;;;;18.30;49.20;;;;;;4993888;28;19922;-66
2022/04/15 07:09:42;;;;;;;;;;;18.40;47.90;;;;;;4993560;28;20294;-65
2022/04/15 07:12:08;;;;;;;;;;;18.20;47.00;;;;;;4993586;28;19916;-64
2022/04/15 07:14:33;;;;;;;;;;;18.40;48.20;;;;;;4993970;28;19996;-65
2022/04/15 07:16:59;;;;;;;;;;;18.50;47.70;;;;;;4993597;28;19914;-65
2022/04/15 07:19:27;;;;;;;;;;;18.60;48.10;;;;;;4993598;28;20354;-64
2022/04/15 07:21:52;;;;;;;;;;;18.20;46.80;;;;;;4993607;28;19957;-63
2022/04/15 07:24:18;;;;;;;;;;;18.30;47.50;;;;;;4993699;28;19963;-64
2022/04/15 07:26:43;;;;;;;;;;;18.00;46.30;;;;;;4993423;28;19917;-67
2022/04/15 07:29:09;;;;;;;;;;;18.20;47.90;;;;;;4993325;28;19918;-64
2022/04/15 07:31:35;;;;;;;;;;;18.50;49.10;;;;;;4993519;28;20005;-64
2022/04/15 07:34:01;;;;;;;;;;;18.90;47.20;;;;;;4993537;28;19960;-64
2022/04/15 07:39:03;;;;;;;;;;;19.00;45.70;;;;;;4992751;28;20325;-63
2022/04/15 07:41:29;;;;;;;;;;;18.90;44.80;;;;;;4994682;28;20372;-64
2022/04/15 07:43:54;;;;;;;;;;;19.30;49.10;;;;;;4994934;28;19910;-67
2022/04/15 07:46:20;;;;;;;;;;;19.60;47.90;;;;;;4994826;28;19914;-67
2022/04/15 07:48:45;;;;;;;;;;;19.60;44.50;;;;;;4994794;28;19918;-68
2022/04/15 07:51:11;;;;;;;;;;;19.60;44.80;;;;;;4993273;28;20008;-66
2022/04/15 07:53:37;;;;;;;;;;;19.60;44.20;;;;;;4994400;28;19914;-73
2022/04/15 07:56:03;;;;;;;;;;;19.60;44.40;;;;;;4994230;28;19949;-73
2022/04/15 07:58:29;;;;;;;;;;;19.40;45.30;;;;;;4994691;28;20005;-68
2022/04/15 08:00:54;;;;;;;;;;;19.40;45.70;;;;;;4994370;28;19914;-71
2022/04/15 08:03:21;;;;;;;;;;;19.40;47.00;;;;;;4994259;28;20302;-72
2022/04/15 08:05:47;;;;;;;;;;;19.80;47.00;;;;;;4994243;28;19910;-69
2022/04/15 08:08:12;;;;;;;;;;;20.10;47.20;;;;;;4994281;28;20401;-63
2022/04/15 08:10:38;;;;;;;;;;;20.20;46.60;;;;;;4994121;28;19917;-64
2022/04/15 08:13:04;;;;;;;;;;;19.60;48.10;;;;;;4994158;28;19910;-74
2022/04/15 08:15:29;;;;;;;;;;;19.20;48.80;;;;;;4994209;28;19910;-70
2022/04/15 08:17:55;;;;;;;;;;;19.00;50.20;;;;;;4994059;28;19920;-72
2022/04/15 08:20:20;;;;;;;;;;;18.90;50.10;;;;;;4994467;28;19960;-72
2022/04/15 08:22:46;;;;;;;;;;;18.80;50.90;;;;;;4993944;28;20009;-66
2022/04/15 08:25:12;;;;;;;;;;;18.50;50.60;;;;;;4994273;28;19949;-66
2022/04/15 08:27:37;;;;;;;;;;;18.50;51.60;;;;;;4994496;28;20017;-65
2022/04/15 08:30:03;;;;;;;;;;;18.50;51.30;;;;;;4994180;28;19917;-63
2022/04/15 08:32:33;;;;;;;;;;;18.60;51.00;;;;;;4994403;28;20293;-70
2022/04/15 08:35:09;;;;;;;;;;;18.50;49.80;;;;;;4994459;28;19909;-64
2022/04/15 08:37:34;;;;;;;;;;;18.40;50.50;;;;;;4994172;28;19910;-67
2022/04/15 08:40:00;;;;;;;;;;;18.40;48.10;;;;;;4994131;28;19910;-65
2022/04/15 08:42:26;;;;;;;;;;;18.70;50.70;;;;;;4994268;28;20358;-65
2022/04/15 08:44:52;;;;;;;;;;;18.80;47.90;;;;;;4994049;28;19913;-65
2022/04/15 08:47:18;;;;;;;;;;;19.00;47.00;;;;;;4993918;28;19917;-64
2022/04/15 08:49:44;;;;;;;;;;;19.20;46.00;;;;;;4993814;28;19917;-66
2022/04/15 08:52:11;;;;;;;;;;;19.50;45.60;;;;;;4993726;28;19917;-65
2022/04/15 08:54:37;;;;;;;;;;;19.60;44.30;;;;;;4994102;28;19910;-63
2022/04/15 08:57:03;;;;;;;;;;;19.70;44.60;;;;;;4993361;28;20009;-64
2022/04/15 08:59:28;;;;;;;;;;;19.80;45.90;;;;;;4992519;28;19956;-63
2022/04/15 09:01:54;;;;;;;;;;;20.00;46.10;;;;;;4992970;28;19913;-63
2022/04/15 09:04:20;;;;;;;;;;;20.30;45.90;;;;;;4994069;28;19910;-64
2022/04/15 09:06:45;;;;;;;;;;;20.20;43.40;;;;;;4993511;28;19910;-63
2022/04/15 09:09:12;;;;;;;;;;;20.10;43.80;;;;;;4994186;28;19909;-63
2022/04/15 09:11:39;;;;;;;;;;;20.20;44.90;;;;;;4993824;28;19945;-63
2022/04/15 09:14:08;;;;;;;;;;;20.50;45.70;;;;;;4994117;28;20452;-64
2022/04/15 09:16:38;;;;;;;;;;;20.40;43.20;;;;;;4997487;28;19914;-64
2022/04/15 09:19:05;;;;;;;;;;;20.70;45.10;;;;;;4997259;28;19952;-64
2022/04/15 09:21:31;;;;;;;;;;;21.00;44.60;;;;;;4997400;28;19964;-63
2022/04/15 09:23:56;;;;;;;;;;;21.00;42.20;;;;;;4997507;28;19910;-63
2022/04/15 09:26:23;;;;;;;;;;;20.90;44.10;;;;;;4997198;28;19910;-62
2022/04/15 09:28:49;;;;;;;;;;;20.90;44.00;;;;;;4997486;28;19918;-63
2022/04/15 09:31:15;;;;;;;;;;;21.10;42.60;;;;;;4997259;28;19910;-63
2022/04/15 09:34:00;;;;;;;;;;;20.70;40.40;;;;;;4997217;28;19965;-62
2022/04/15 09:36:27;;;;;;;;;;;20.90;42.50;;;;;;4997500;28;19917;-64
2022/04/15 09:39:18;;;;;;;;;;;20.70;40.50;;;;;;4997379;28;19914;-63
2022/04/15 09:41:52;;;;;;;;;;;20.50;42.10;;;;;;4995266;28;19933;-65
2022/04/15 09:44:20;;;;;;;;;;;20.30;42.30;;;;;;4997001;28;19920;-63
2022/04/15 09:46:46;;;;;;;;;;;20.20;43.30;;;;;;4997317;28;20414;-65
2022/04/15 09:49:12;;;;;;;;;;;20.00;43.90;;;;;;4997168;28;19997;-63
2022/04/15 09:51:40;;;;;;;;;;;20.00;43.70;;;;;;4996933;28;19969;-65
2022/04/15 09:54:07;;;;;;;;;;;20.40;45.10;;;;;;4997290;28;20008;-64
2022/04/15 09:56:34;;;;;;;;;;;20.30;42.60;;;;;;5002234;28;20388;-64
2022/04/15 09:59:03;;;;;;;;;;;19.70;44.80;;;;;;5000656;28;20404;-64
2022/04/15 10:01:30;;;;;;;;;;;19.30;46.40;;;;;;5000419;28;20010;-70
2022/04/15 10:03:56;;;;;;;;;;;19.30;47.20;;;;;;5001391;28;19976;-64
2022/04/15 10:06:22;;;;;;;;;;;19.50;46.70;;;;;;5000225;28;19936;-63
2022/04/15 10:08:48;;;;;;;;;;;19.30;46.30;;;;;;4998358;28;19921;-64
2022/04/15 10:11:14;;;;;;;;;;;19.20;46.90;;;;;;4996599;28;19910;-64
2022/04/15 10:13:43;;;;;;;;;;;19.50;46.00;;;;;;4995563;28;19920;-64
2022/04/15 10:16:08;;;;;;;;;;;19.50;46.20;;;;;;4996868;28;20324;-64
2022/04/15 10:18:34;;;;;;;;;;;19.70;45.90;;;;;;4996515;28;19925;-64
2022/04/15 10:21:03;;;;;;;;;;;20.00;44.20;;;;;;4996648;28;19956;-65
2022/04/15 10:23:29;;;;;;;;;;;19.80;42.50;;;;;;4996123;28;19941;-63
2022/04/15 10:25:55;;;;;;;;;;;19.50;42.20;;;;;;4995528;28;19913;-64
2022/04/15 10:28:37;;;;;;;;;;;19.50;42.60;;;;;;4995787;28;19924;-64
2022/04/15 10:31:11;;;;;;;;;;;19.70;44.20;;;;;;4996536;28;19972;-64
2022/04/15 10:33:39;;;;;;;;;;;20.10;45.10;;;;;;4996270;28;19910;-61
2022/04/15 10:36:17;;;;;;;;;;;20.50;43.50;;;;;;4996161;28;20444;-63
2022/04/15 10:39:01;;;;;;;;;;;20.50;37.10;;;;;;4995988;28;19910;-63
2022/04/15 10:41:27;;;;;;;;;;;20.60;38.90;;;;;;4996322;28;20432;-65
2022/04/15 10:43:59;;;;;;;;;;;20.60;41.30;;;;;;4996189;28;19910;-64
2022/04/15 10:46:31;;;;;;;;;;;20.40;37.60;;;;;;4996281;28;19935;-62
2022/04/15 10:48:57;;;;;;;;;;;20.20;40.20;;;;;;4995950;28;20330;-64
2022/04/15 10:51:33;;;;;;;;;;;19.90;42.50;;;;;;4977977;28;20052;-62
2022/04/15 10:54:17;;;;;;;;;;;20.10;46.20;;;;;;4995969;28;19916;-67
2022/04/15 10:57:01;;;;;;;;;;;20.20;44.60;;;;;;4993415;28;19945;-62
2022/04/15 11:02:15;;;;;;;;;;;20.70;43.60;;;;;;4995392;28;20290;-64
2022/04/15 11:04:42;;;;;;;;;;;20.90;50.60;;;;;;4995191;28;19909;-64
2022/04/15 11:07:14;;;;;;;;;;;21.20;50.20;;;;;;4995375;28;19926;-64
2022/04/15 11:09:40;;;;;;;;;;;21.30;44.10;;;;;;4995170;28;19925;-64
2022/04/15 11:12:06;;;;;;;;;;;21.40;44.80;;;;;;4994995;28;19913;-65
2022/04/15 11:14:34;;;;;;;;;;;21.50;46.80;;;;;;4995028;28;20013;-63
2022/04/15 11:17:00;;;;;;;;;;;21.40;44.70;;;;;;4995081;28;19909;-65
2022/04/15 11:19:26;;;;;;;;;;;21.40;45.40;;;;;;4995009;28;20362;-63
2022/04/15 11:21:53;;;;;;;;;;;21.50;45.40;;;;;;4995034;28;20374;-63
2022/04/15 11:24:26;;;;;;;;;;;21.50;48.00;;;;;;4994856;28;20000;-62
2022/04/15 11:26:58;;;;;;;;;;;21.10;43.30;;;;;;4995060;28;19918;-63
2022/04/15 11:29:28;;;;;;;;;;;21.10;45.20;;;;;;4995095;28;19948;-61
2022/04/15 11:31:56;;;;;;;;;;;21.30;46.10;;;;;;4994706;28;19957;-61
2022/04/15 11:34:22;;;;;;;;;;;21.40;45.60;;;;;;4994597;28;20325;-62
2022/04/15 11:36:49;;;;;;;;;;;21.20;41.40;;;;;;4994572;28;19914;-60
2022/04/15 11:39:16;;;;;;;;;;;20.80;43.70;;;;;;4994433;28;19972;-66
2022/04/15 11:41:44;;;;;;;;;;;20.30;44.90;;;;;;4994482;28;19909;-66
2022/04/15 11:44:10;;;;;;;;;;;20.40;46.60;;;;;;4994855;28;19913;-61
2022/04/15 11:46:35;;;;;;;;;;;20.40;46.20;;;;;;4995170;28;19978;-63
2022/04/15 11:49:01;;;;;;;;;;;20.70;46.60;;;;;;4996208;28;20362;-62
2022/04/15 11:51:27;;;;;;;;;;;20.60;48.00;;;;;;4995487;28;19910;-61
2022/04/15 11:53:54;;;;;;;;;;;20.90;47.60;;;;;;4994845;28;20277;-63
2022/04/15 11:56:24;;;;;;;;;;;21.20;48.50;;;;;;4994468;28;19909;-61
2022/04/15 11:58:49;;;;;;;;;;;21.40;48.10;;;;;;4994380;28;19910;-62
2022/04/15 12:01:25;;;;;;;;;;;20.90;48.80;;;;;;4994382;28;19917;-60
2022/04/15 12:03:51;;;;;;;;;;;20.50;49.10;;;;;;4994090;28;20012;-63
2022/04/15 12:06:16;;;;;;;;;;;20.50;45.60;;;;;;4994373;28;19949;-63
2022/04/15 12:08:42;;;;;;;;;;;20.20;46.70;;;;;;4994088;28;19922;-66
2022/04/15 12:11:09;;;;;;;;;;;20.20;49.20;;;;;;4992699;28;19909;-63
2022/04/15 12:13:34;;;;;;;;;;;20.10;47.20;;;;;;4994032;28;20042;-60
2022/04/15 12:16:01;;;;;;;;;;;20.30;49.70;;;;;;4993928;28;20004;-60
2022/04/15 12:18:26;;;;;;;;;;;19.80;48.30;;;;;;4993657;28;20057;-63
2022/04/15 12:20:52;;;;;;;;;;;19.60;49.20;;;;;;4993635;28;20359;-61
2022/04/15 12:23:17;;;;;;;;;;;20.00;47.00;;;;;;4993358;28;19936;-61
2022/04/15 12:26:06;;;;;;;;;;;19.70;45.10;;;;;;4993436;28;19914;-63
2022/04/15 12:31:30;;;;;;;;;;;19.90;45.60;;;;;;4993845;28;20269;-63
2022/04/15 12:33:55;;;;;;;;;;;19.80;45.60;;;;;;4993758;28;20282;-63
2022/04/15 12:36:21;;;;;;;;;;;19.70;47.10;;;;;;4993779;28;19917;-63
2022/04/15 12:39:00;;;;;;;;;;;20.20;47.40;;;;;;4993787;28;20004;-58
2022/04/15 12:41:36;;;;;;;;;;;20.40;47.40;;;;;;4993746;28;19957;-58
2022/04/15 12:44:31;;;;;;;;;;;20.30;46.70;;;;;;4993910;28;20397;-62
2022/04/15 12:46:58;;;;;;;;;;;20.50;47.50;;;;;;4980846;28;20365;-62
2022/04/15 12:49:24;;;;;;;;;;;20.50;47.50;;;;;;4994049;28;19968;-65
2022/04/15 12:51:49;;;;;;;;;;;20.60;46.10;;;;;;4997484;28;19960;-66
2022/04/15 12:54:15;;;;;;;;;;;20.60;46.20;;;;;;4997220;28;19938;-66
2022/04/15 12:56:53;;;;;;;;;;;20.70;45.60;;;;;;4997682;28;20000;-64
2022/04/15 12:59:19;;;;;;;;;;;20.80;45.40;;;;;;4996821;28;20263;-65
2022/04/15 13:01:44;;;;;;;;;;;20.70;46.30;;;;;;4996006;28;19937;-64
2022/04/15 13:04:14;;;;;;;;;;;20.90;48.60;;;;;;4996363;28;20353;-62
2022/04/15 13:06:39;;;;;;;;;;;20.60;45.70;;;;;;4995480;28;19925;-61
2022/04/15 13:09:05;;;;;;;;;;;20.70;46.70;;;;;;4996097;28;20433;-62
2022/04/15 13:11:30;;;;;;;;;;;20.50;43.80;;;;;;4996737;28;19917;-62
2022/04/15 13:13:56;;;;;;;;;;;20.10;45.70;;;;;;4997374;28;19990;-60
2022/04/15 13:16:21;;;;;;;;;;;20.10;49.60;;;;;;4995383;28;20377;-61
2022/04/15 13:18:47;;;;;;;;;;;20.40;49.20;;;;;;4997079;28;19925;-61
2022/04/15 13:21:13;;;;;;;;;;;20.30;48.60;;;;;;4996724;28;19925;-60
2022/04/15 13:23:39;;;;;;;;;;;20.10;47.50;;;;;;4995542;28;19912;-61
2022/04/15 13:26:04;;;;;;;;;;;20.30;46.90;;;;;;4995133;28;19938;-61
2022/04/15 13:28:30;;;;;;;;;;;20.60;46.50;;;;;;4996705;28;19918;-61
2022/04/15 13:30:55;;;;;;;;;;;20.70;46.20;;;;;;4985862;28;19993;-62
2022/04/15 13:33:21;;;;;;;;;;;20.80;45.20;;;;;;4996977;28;19941;-61
2022/04/15 13:35:47;;;;;;;;;;;20.50;44.40;;;;;;4996608;28;20373;-61
2022/04/15 13:38:12;;;;;;;;;;;20.30;41.40;;;;;;4997051;28;19910;-61
2022/04/15 13:40:41;;;;;;;;;;;20.00;38.80;;;;;;4997258;28;19913;-61
2022/04/15 13:43:07;;;;;;;;;;;19.90;42.00;;;;;;4997055;28;19972;-61
2022/04/15 13:45:33;;;;;;;;;;;19.80;41.00;;;;;;4997049;28;20362;-61
2022/04/15 13:47:58;;;;;;;;;;;19.80;38.00;;;;;;4996752;28;19918;-61
2022/04/15 13:50:24;;;;;;;;;;;19.50;38.20;;;;;;4996825;28;19914;-62
2022/04/15 13:58:19;;;;;;;;;;;20.20;43.70;;;;;;4996788;28;19916;-62
2022/04/15 14:00:44;;;;;;;;;;;20.10;42.70;;;;;;4996355;28;19913;-61
2022/04/15 14:03:10;;;;;;;;;;;19.70;43.10;;;;;;4996540;28;19916;-62
2022/04/15 14:05:36;;;;;;;;;;;19.60;45.20;;;;;;4996496;28;19952;-62
2022/04/15 14:08:03;;;;;;;;;;;19.40;44.30;;;;;;4996469;28;19964;-61
2022/04/15 14:10:29;;;;;;;;;;;19.30;42.20;;;;;;4996356;28;19913;-62
2022/04/15 14:12:58;;;;;;;;;;;19.40;41.00;;;;;;4996011;28;19910;-61
2022/04/15 14:15:24;;;;;;;;;;;19.70;39.00;;;;;;4996122;28;19910;-62
2022/04/15 14:17:50;;;;;;;;;;;19.60;39.00;;;;;;4996099;28;19921;-61
2022/04/15 14:20:16;;;;;;;;;;;19.70;38.20;;;;;;4996126;28;20015;-61
2022/04/15 14:22:42;;;;;;;;;;;19.50;40.80;;;;;;4996175;28;19910;-61
2022/04/15 14:25:07;;;;;;;;;;;19.60;39.30;;;;;;4996177;28;19933;-61
2022/04/15 14:27:33;;;;;;;;;;;19.60;39.70;;;;;;4996215;28;19929;-61